»·PEaware :: EJM24 KASE-KBOI

EJM24 :: KASE-KBOI

FLIGHT INFORMATION

Flight Status: Arrived
Operator: Unknown
More flights by this operator :: More flights under this callsign
Pilot: Andrew W. (18069)
Aircraft: BOMBARDIER BD-100 CHALLENGER 300
(CL30)
More flights by this aircraft type
Origin: KASE Aspen-Pitkin Co/Sardy
United States
Destination: KBOI Boise Air Terminal/Gowen
United States
More flights between these airports :: More routes between these airports
Route: +PITKN4 RIL TCH BROPH SPUUD3
File this flight plan on PilotEdge
Remarks:
Altitude:
(Current/Filed)
40,000ft
Speed:
(Current/Filed)
484kts
Departed: 18-Apr-20 12:13 PM
Arrived: 18-Apr-20 01:46 PM
Distance/Time
Traveled:
495nm/1:33
Distance/Time
To Go:
Arrived

Flight Plot

Page will automatically refresh every two minutes.


Map Options




Map Legend


Flown Route
Filed Route
Departure Airport
Arrival Airport
Navaid (VOR, NDB)
Fix

Horizontal Profiles

Position Reports

Time Latitude Longitude Heading Altitude Ground
Speed
18-Apr-20 11:54 39.222815 -106.866733 290 7841ft 0kts
18-Apr-20 11:55 39.222815 -106.866733 290 7841ft 0kts
18-Apr-20 11:56 39.222815 -106.866733 290 7841ft 0kts
18-Apr-20 11:57 39.222815 -106.866733 290 7841ft 0kts
18-Apr-20 11:58 39.222815 -106.866733 290 7841ft 0kts
18-Apr-20 11:59 39.222815 -106.866733 290 7841ft 0kts
18-Apr-20 12:00 39.222815 -106.866733 290 7841ft 0kts
18-Apr-20 12:01 39.222815 -106.866733 290 7841ft 0kts
18-Apr-20 12:02 39.222815 -106.866733 290 7841ft 0kts
18-Apr-20 12:03 39.222815 -106.866733 290 7841ft 0kts
18-Apr-20 12:04 39.222818 -106.866741 290 7841ft 0kts
18-Apr-20 12:05 39.222830 -106.866989 247 7841ft 0kts
18-Apr-20 12:06 39.222661 -106.867303 213 7840ft 7kts
18-Apr-20 12:07 39.219140 -106.865773 159 7841ft 20kts
18-Apr-20 12:08 39.213561 -106.863134 159 7841ft 19kts
18-Apr-20 12:09 39.212281 -106.862583 172 7840ft 0kts
18-Apr-20 12:10 39.212281 -106.862583 172 7840ft 0kts
18-Apr-20 12:11 39.212075 -106.863568 338 7841ft 4kts
18-Apr-20 12:12 39.244219 -106.878927 340 8940ft 196kts
18-Apr-20 12:13 39.296522 -106.924591 297 11695ft 301kts
18-Apr-20 12:14 39.338732 -107.030694 295 15364ft 356kts
18-Apr-20 12:15 39.382287 -107.149029 278 19163ft 375kts
18-Apr-20 12:16 39.363533 -107.287494 256 19992ft 406kts
18-Apr-20 12:17 39.335887 -107.429522 256 20120ft 404kts
18-Apr-20 12:18 39.311487 -107.567764 271 23213ft 399kts
18-Apr-20 12:19 39.387335 -107.662282 340 25653ft 423kts
18-Apr-20 12:20 39.500921 -107.710207 331 27772ft 436kts
18-Apr-20 12:21 39.566758 -107.838683 293 29583ft 442kts
18-Apr-20 12:22 39.616876 -107.985776 292 31241ft 452kts
18-Apr-20 12:23 39.667033 -108.136972 292 32671ft 462kts
18-Apr-20 12:24 39.717095 -108.289091 292 34623ft 455kts
18-Apr-20 12:25 39.766391 -108.439756 292 36364ft 451kts
18-Apr-20 12:26 39.815241 -108.589869 292 37865ft 452kts
18-Apr-20 12:27 39.863038 -108.737517 291 39273ft 452kts
18-Apr-20 12:28 39.911567 -108.888226 292 39983ft 447kts
18-Apr-20 12:29 39.959185 -109.036903 291 39993ft 446kts
18-Apr-20 12:30 40.006353 -109.184997 291 39990ft 440kts
18-Apr-20 12:31 40.052954 -109.332092 291 39989ft 439kts
18-Apr-20 12:32 40.099172 -109.478758 291 39988ft 439kts
18-Apr-20 12:33 40.145299 -109.625894 291 39988ft 439kts
18-Apr-20 12:34 40.191060 -109.772701 291 39992ft 439kts
18-Apr-20 12:35 40.236393 -109.918888 291 39990ft 439kts
18-Apr-20 12:36 40.282073 -110.067009 291 39990ft 439kts
18-Apr-20 12:38 40.327464 -110.214994 291 39992ft 439kts
18-Apr-20 12:39 40.372568 -110.362864 291 39999ft 439kts
18-Apr-20 12:40 40.417423 -110.510738 291 40000ft 439kts
18-Apr-20 12:41 40.461467 -110.656730 290 40006ft 439kts
18-Apr-20 12:42 40.506123 -110.805572 290 40021ft 439kts
18-Apr-20 12:43 40.549155 -110.949791 290 40028ft 439kts
18-Apr-20 12:44 40.593488 -111.099200 290 40029ft 439kts
18-Apr-20 12:45 40.637522 -111.248471 290 40030ft 438kts
18-Apr-20 12:46 40.681324 -111.397797 290 40031ft 439kts
18-Apr-20 12:47 40.724947 -111.547343 290 40020ft 439kts
18-Apr-20 12:48 40.768008 -111.695839 289 40019ft 439kts
18-Apr-20 12:49 40.810925 -111.844663 289 40019ft 439kts
18-Apr-20 12:50 40.859982 -111.991706 304 40022ft 442kts
18-Apr-20 12:51 40.940104 -112.114165 309 40025ft 443kts
18-Apr-20 12:52 41.021822 -112.235812 309 40020ft 444kts
18-Apr-20 12:53 41.102203 -112.355614 310 40014ft 446kts
18-Apr-20 12:54 41.184527 -112.478725 310 40018ft 446kts
18-Apr-20 12:55 41.266382 -112.601667 310 40016ft 445kts
18-Apr-20 12:56 41.347098 -112.723393 309 40025ft 445kts
18-Apr-20 12:57 41.428084 -112.846048 310 40027ft 444kts
18-Apr-20 12:57 41.495401 -112.948433 311 40025ft 440kts
18-Apr-20 12:59 41.590162 -113.093000 312 40020ft 447kts
18-Apr-20 13:00 41.671684 -113.217925 312 39994ft 446kts
18-Apr-20 13:01 41.752849 -113.342877 312 39968ft 444kts
18-Apr-20 13:01 41.820156 -113.446896 312 39280ft 444kts
18-Apr-20 13:02 41.900523 -113.571589 312 38297ft 444kts
18-Apr-20 13:04 41.994190 -113.717553 311 36973ft 443kts
18-Apr-20 13:04 42.061188 -113.822401 311 35818ft 444kts
18-Apr-20 13:05 42.141667 -113.948845 312 34198ft 447kts
18-Apr-20 13:06 42.222652 -114.076610 311 32339ft 451kts
18-Apr-20 13:07 42.304099 -114.205675 311 30185ft 455kts
18-Apr-20 13:08 42.385046 -114.334529 311 28407ft 444kts
18-Apr-20 13:09 42.463739 -114.460326 311 26692ft 433kts
18-Apr-20 13:10 42.540441 -114.583455 311 24954ft 422kts
18-Apr-20 13:11 42.614920 -114.703512 310 23220ft 411kts
18-Apr-20 13:12 42.686766 -114.819796 310 22059ft 386kts
18-Apr-20 13:13 42.757613 -114.927693 313 21474ft 390kts
18-Apr-20 13:14 42.831794 -115.034286 313 20290ft 383kts
18-Apr-20 13:15 42.904426 -115.138955 313 19292ft 377kts
18-Apr-20 13:16 42.975806 -115.242392 312 18211ft 371kts
18-Apr-20 13:17 43.043964 -115.341590 311 16185ft 348kts
18-Apr-20 13:18 43.108012 -115.435168 311 14173ft 327kts
18-Apr-20 13:19 43.166689 -115.521035 311 13320ft 305kts
18-Apr-20 13:20 43.223253 -115.603925 311 12034ft 296kts
18-Apr-20 13:21 43.276592 -115.687963 296 11304ft 288kts
18-Apr-20 13:22 43.313810 -115.785183 295 10428ft 290kts
18-Apr-20 13:23 43.350468 -115.883320 295 9425ft 286kts
18-Apr-20 13:24 43.386591 -115.980500 295 8424ft 285kts
18-Apr-20 13:25 43.420784 -116.072798 295 7397ft 256kts
18-Apr-20 13:26 43.451515 -116.156026 295 7016ft 235kts
18-Apr-20 13:27 43.480406 -116.237945 294 7023ft 240kts
18-Apr-20 13:28 43.508432 -116.320217 296 7015ft 231kts
18-Apr-20 13:29 43.532941 -116.401795 293 5807ft 228kts
18-Apr-20 13:30 43.556938 -116.482484 293 4807ft 220kts
18-Apr-20 13:31 43.580330 -116.562325 293 5053ft 227kts
18-Apr-20 13:32 43.604724 -116.643405 293 5036ft 233kts
18-Apr-20 13:33 43.630550 -116.725449 292 5034ft 232kts
18-Apr-20 13:34 43.656508 -116.807840 292 5034ft 234kts
18-Apr-20 13:35 43.702860 -116.830870 59 5048ft 229kts
18-Apr-20 13:36 43.695629 -116.746805 104 5034ft 223kts
18-Apr-20 13:37 43.680031 -116.663472 105 4896ft 223kts
18-Apr-20 13:38 43.664130 -116.580471 103 4694ft 224kts
18-Apr-20 13:39 43.649398 -116.503615 103 4254ft 191kts
18-Apr-20 13:40 43.635120 -116.435170 112 4016ft 185kts
18-Apr-20 13:41 43.615058 -116.371877 112 4006ft 165kts
18-Apr-20 13:42 43.598607 -116.320654 112 4006ft 133kts
18-Apr-20 13:43 43.583576 -116.276135 113 3468ft 125kts
18-Apr-20 13:44 43.569201 -116.233912 114 2885ft 109kts
18-Apr-20 13:45 43.564317 -116.217144 355 2878ft 10kts
18-Apr-20 13:46 43.566644 -116.222926 295 2878ft 25kts
18-Apr-20 13:47 43.568941 -116.228477 23 2878ft 6kts
18-Apr-20 13:48 43.570349 -116.228244 273 2878ft 0kts
18-Apr-20 13:49 43.570349 -116.228244 273 2878ft 0kts
18-Apr-20 13:57 43.570349 -116.228244 273 2878ft 0kts
18-Apr-20 13:58 43.570349 -116.228244 273 2878ft 0kts
18-Apr-20 13:59 43.570349 -116.228244 273 2878ft 0kts
18-Apr-20 14:00 43.570349 -116.228244 273 2878ft 0kts

Navigation Log

Ident Type
Flight plan parsing failed, navigation log unavailable